Time;durP1;ratioP1;P1;durP2;ratioP2;P2;SDS_P1;SDS_P2;PMS_P1;PMS_P2;Temp;Humidity;BMP_temperature;BMP_pressure;BME280_temperature;BME280_humidity;BME280_pressure;Samples;Min_cycle;Max_cycle;Signal;HPM_P1;HPM_P2
2022/04/18 00:00:25;;;;;;;20.25;14.52;;;8.30;99.90;;;;;;5010917;28;20710;-75
2022/04/18 00:02:51;;;;;;;20.42;14.50;;;8.30;99.90;;;;;;5025786;28;20041;-75
2022/04/18 00:05:16;;;;;;;22.33;14.85;;;8.30;99.90;;;;;;4990252;28;20072;-75
2022/04/18 00:07:42;;;;;;;23.85;14.57;;;8.10;99.90;;;;;;5004771;28;20053;-75
2022/04/18 00:10:08;;;;;;;20.45;14.02;;;8.30;99.80;;;;;;5010149;28;20050;-75
2022/04/18 00:12:34;;;;;;;18.55;14.25;;;8.30;97.60;;;;;;5010456;28;20152;-75
2022/04/18 00:15:00;;;;;;;23.98;14.45;;;8.20;99.90;;;;;;5025339;28;20041;-75
2022/04/18 00:17:25;;;;;;;20.15;14.18;;;8.10;99.90;;;;;;5008725;28;20057;-75
2022/04/18 00:19:51;;;;;;;20.95;14.45;;;8.20;99.70;;;;;;5009951;28;20318;-75
2022/04/18 00:22:17;;;;;;;20.88;14.63;;;8.10;99.90;;;;;;5006313;28;20054;-75
2022/04/18 00:24:43;;;;;;;19.40;14.57;;;8.10;99.90;;;;;;5012837;28;20044;-75
2022/04/18 00:27:09;;;;;;;21.13;14.55;;;8.20;99.90;;;;;;5020075;28;20500;-75
2022/04/18 00:29:35;;;;;;;22.35;14.40;;;8.10;98.40;;;;;;5005231;28;20052;-75
2022/04/18 00:32:01;;;;;;;22.38;15.23;;;8.10;98.40;;;;;;5008853;28;21748;-75
2022/04/18 00:34:27;;;;;;;23.63;16.10;;;8.20;98.00;;;;;;5010416;28;20044;-75
2022/04/18 00:36:52;;;;;;;20.50;14.93;;;8.00;99.90;;;;;;5018268;28;20045;-75
2022/04/18 00:39:20;;;;;;;23.45;15.82;;;8.00;98.70;;;;;;5031446;28;20083;-75
2022/04/18 00:41:46;;;;;;;20.73;15.52;;;7.90;99.90;;;;;;5031536;28;20060;-75
2022/04/18 00:44:12;;;;;;;23.00;15.20;;;8.00;99.90;;;;;;5027690;28;20583;-75
2022/04/18 00:46:37;;;;;;;22.98;15.20;;;8.20;99.40;;;;;;5027688;28;20047;-75
2022/04/18 00:49:03;;;;;;;18.70;14.73;;;8.00;99.90;;;;;;5026437;28;20044;-75
2022/04/18 00:51:29;;;;;;;18.75;13.93;;;8.00;99.80;;;;;;5028708;28;20040;-75
2022/04/18 00:53:57;;;;;;;22.05;14.75;;;8.00;99.90;;;;;;5030088;28;20045;-75
2022/04/18 00:56:25;;;;;;;20.35;14.13;;;7.80;99.90;;;;;;5027898;28;20044;-75
2022/04/18 00:58:51;;;;;;;19.85;13.82;;;7.90;99.90;;;;;;5027313;28;20053;-75
2022/04/18 01:01:18;;;;;;;18.42;14.20;;;7.70;99.90;;;;;;5031179;28;20143;-75
2022/04/18 01:03:44;;;;;;;21.13;14.07;;;7.90;99.90;;;;;;5013594;28;20048;-75
2022/04/18 01:06:11;;;;;;;18.70;13.70;;;7.90;97.60;;;;;;5031956;28;20052;-75
2022/04/18 01:08:36;;;;;;;19.70;14.65;;;7.80;99.90;;;;;;5015428;28;20102;-75
2022/04/18 01:11:05;;;;;;;21.50;14.43;;;7.90;99.20;;;;;;5010847;28;20057;-74
2022/04/18 01:13:42;;;;;;;21.63;13.77;;;7.80;99.90;;;;;;5028218;28;20052;-75
2022/04/18 01:16:08;;;;;;;19.23;13.32;;;7.70;99.90;;;;;;5033467;28;20478;-75
2022/04/18 01:18:35;;;;;;;18.17;13.43;;;7.70;99.90;;;;;;5013781;28;20055;-75
2022/04/18 01:21:02;;;;;;;20.17;13.32;;;7.70;98.70;;;;;;5032193;28;21358;-75
2022/04/18 01:23:28;;;;;;;18.20;13.75;;;7.70;99.70;;;;;;5032024;28;20167;-75
2022/04/18 01:31:23;;;;;;;18.90;13.43;;;7.40;99.90;;;;;;5026439;28;20135;-75
2022/04/18 01:33:48;;;;;;;18.05;12.80;;;7.50;98.10;;;;;;5031213;28;20067;-75
2022/04/18 01:36:14;;;;;;;19.77;14.13;;;7.60;99.90;;;;;;5026420;28;20157;-75
2022/04/18 01:38:40;;;;;;;20.45;13.55;;;7.50;98.90;;;;;;5010282;28;20232;-75
2022/04/18 01:41:06;;;;;;;18.33;12.90;;;7.50;99.90;;;;;;5030411;28;20515;-75
2022/04/18 01:43:32;;;;;;;18.50;13.88;;;7.40;98.20;;;;;;5027045;28;20044;-75
2022/04/18 01:45:58;;;;;;;19.63;13.55;;;7.50;99.90;;;;;;5012536;28;20049;-75
2022/04/18 01:48:24;;;;;;;18.17;12.82;;;7.40;99.90;;;;;;5027970;28;20098;-75
2022/04/18 01:50:50;;;;;;;16.92;12.32;;;7.40;99.90;;;;;;5024592;28;20479;-75
2022/04/18 01:53:16;;;;;;;19.55;13.27;;;7.40;99.10;;;;;;5027801;28;20167;-75
2022/04/18 01:55:42;;;;;;;21.13;14.18;;;7.30;99.90;;;;;;5028988;28;20044;-75
2022/04/18 01:58:08;;;;;;;17.90;13.48;;;7.40;98.50;;;;;;5026174;28;20213;-75
2022/04/18 02:00:34;;;;;;;22.48;13.50;;;7.20;99.90;;;;;;5010338;28;20132;-75
2022/04/18 02:03:00;;;;;;;18.70;12.90;;;7.40;98.20;;;;;;5007176;28;20079;-75
2022/04/18 02:05:26;;;;;;;22.00;13.73;;;7.30;99.50;;;;;;5029107;28;20400;-75
2022/04/18 02:07:52;;;;;;;27.25;13.48;;;7.30;99.90;;;;;;5026453;28;20515;-74
2022/04/18 02:10:18;;;;;;;21.35;13.13;;;7.30;99.90;;;;;;5030829;28;20127;-75
2022/04/18 02:12:43;;;;;;;19.95;12.73;;;7.20;99.90;;;;;;5024567;28;20059;-75
2022/04/18 02:15:09;;;;;;;18.88;12.82;;;7.20;99.90;;;;;;5028648;28;20045;-75
2022/04/18 02:17:35;;;;;;;19.02;13.60;;;7.20;98.30;;;;;;5030752;28;20114;-75
2022/04/18 02:20:01;;;;;;;18.58;13.63;;;7.00;99.90;;;;;;5025263;28;20041;-75
2022/04/18 02:22:27;;;;;;;19.98;13.93;;;7.10;99.60;;;;;;5027153;28;20052;-75
2022/04/18 02:24:57;;;;;;;19.58;13.57;;;7.20;98.50;;;;;;5027643;28;20369;-74
2022/04/18 02:27:23;;;;;;;20.60;14.20;;;7.30;98.50;;;;;;5025309;28;20545;-75
2022/04/18 02:29:49;;;;;;;16.90;12.82;;;7.10;99.90;;;;;;5032256;28;20518;-75
2022/04/18 02:34:59;;;;;;;19.70;13.73;;;7.20;99.90;;;;;;5029312;28;20064;-75
2022/04/18 02:37:25;;;;;;;19.50;12.93;;;7.10;99.90;;;;;;5027489;28;20408;-75
2022/04/18 02:39:54;;;;;;;19.23;13.48;;;7.00;99.90;;;;;;5027975;28;20081;-75
2022/04/18 02:42:20;;;;;;;19.77;14.27;;;7.10;99.90;;;;;;5029995;28;20273;-75
2022/04/18 02:44:48;;;;;;;20.33;12.73;;;7.10;99.90;;;;;;5023456;28;20044;-75
2022/04/18 02:47:14;;;;;;;18.20;13.32;;;7.10;99.90;;;;;;5024602;28;20530;-75
2022/04/18 02:49:40;;;;;;;17.73;13.05;;;7.00;99.90;;;;;;5018523;28;20111;-75
2022/04/18 02:52:06;;;;;;;20.23;14.05;;;7.00;99.90;;;;;;5030971;28;20881;-75
2022/04/18 02:54:32;;;;;;;18.85;13.45;;;6.90;99.90;;;;;;5012637;28;20143;-75
2022/04/18 02:56:58;;;;;;;21.75;14.38;;;6.90;99.90;;;;;;5027649;28;20052;-75
2022/04/18 02:59:24;;;;;;;18.85;13.30;;;6.90;99.90;;;;;;5027724;28;20632;-75
2022/04/18 03:01:49;;;;;;;20.80;14.00;;;6.90;99.90;;;;;;5029018;28;21262;-75
2022/04/18 03:04:15;;;;;;;20.83;14.05;;;6.80;99.90;;;;;;5029535;28;20140;-75
2022/04/18 03:06:41;;;;;;;22.15;13.73;;;6.90;99.90;;;;;;5027667;28;20187;-75
2022/04/18 03:09:07;;;;;;;18.95;13.70;;;6.90;99.90;;;;;;5026388;28;20040;-75
2022/04/18 03:11:33;;;;;;;18.67;13.60;;;7.00;99.90;;;;;;5009544;28;20041;-75
2022/04/18 03:13:58;;;;;;;21.35;13.50;;;6.80;99.90;;;;;;5016418;28;20232;-75
2022/04/18 03:16:24;;;;;;;19.27;13.20;;;6.70;99.90;;;;;;5030287;28;20710;-75
2022/04/18 03:18:50;;;;;;;19.27;13.23;;;6.70;99.90;;;;;;5028250;28;20045;-75
2022/04/18 03:21:16;;;;;;;19.35;13.13;;;6.70;99.90;;;;;;5032289;28;20593;-75
2022/04/18 03:23:45;;;;;;;17.98;12.63;;;6.60;99.90;;;;;;5032542;28;20097;-75
2022/04/18 03:26:13;;;;;;;19.40;12.77;;;6.70;99.90;;;;;;5032791;28;20049;-75
2022/04/18 03:28:38;;;;;;;18.90;12.48;;;6.70;99.90;;;;;;5032893;28;20064;-75
2022/04/18 03:31:04;;;;;;;19.90;12.35;;;6.60;99.90;;;;;;5013346;28;20044;-75
2022/04/18 03:33:31;;;;;;;20.17;12.70;;;6.60;99.90;;;;;;5029848;28;20037;-75
2022/04/18 03:41:25;;;;;;;21.98;14.10;;;6.60;99.90;;;;;;5030166;28;20045;-75
2022/04/18 03:43:51;;;;;;;22.05;14.52;;;6.50;99.90;;;;;;5031736;28;20079;-75
2022/04/18 03:46:17;;;;;;;20.83;14.23;;;6.40;99.90;;;;;;5031158;28;20106;-75
2022/04/18 03:48:43;;;;;;;19.83;13.25;;;6.40;99.90;;;;;;5028780;28;20515;-75
2022/04/18 03:51:09;;;;;;;21.42;13.55;;;6.30;99.90;;;;;;5029149;28;20044;-75
2022/04/18 03:53:35;;;;;;;20.13;13.35;;;6.30;99.90;;;;;;5029737;28;20040;-75
2022/04/18 03:56:01;;;;;;;18.63;13.57;;;6.20;99.90;;;;;;5034069;28;20449;-75
2022/04/18 03:58:27;;;;;;;24.05;13.73;;;6.30;99.90;;;;;;5028694;28;20993;-75
2022/04/18 04:00:53;;;;;;;20.25;14.05;;;6.20;99.90;;;;;;5027386;28;20135;-75
2022/04/18 04:03:19;;;;;;;22.63;14.00;;;6.20;99.90;;;;;;5022537;28;20075;-75
2022/04/18 04:05:44;;;;;;;20.73;13.82;;;6.20;99.90;;;;;;5027853;28;20581;-75
2022/04/18 04:08:10;;;;;;;23.02;14.00;;;6.20;99.90;;;;;;5028958;28;20068;-75
2022/04/18 04:10:36;;;;;;;23.00;14.48;;;6.10;99.90;;;;;;5030487;28;20063;-75
2022/04/18 04:13:02;;;;;;;21.73;13.77;;;6.00;99.90;;;;;;5027951;28;20048;-75
2022/04/18 04:15:28;;;;;;;20.33;13.18;;;6.10;99.90;;;;;;5030543;28;20033;-74
2022/04/18 04:17:54;;;;;;;22.33;13.38;;;6.00;99.90;;;;;;5037689;28;20056;-75
2022/04/18 04:20:22;;;;;;;18.25;12.27;;;6.00;99.90;;;;;;5030204;28;20041;-75
2022/04/18 04:22:48;;;;;;;22.38;12.93;;;6.00;99.90;;;;;;5028766;28;20051;-75
2022/04/18 04:25:15;;;;;;;18.98;12.45;;;5.90;99.90;;;;;;5014491;28;20055;-75
2022/04/18 04:27:41;;;;;;;19.55;14.00;;;5.90;99.90;;;;;;5026487;28;20100;-75
2022/04/18 04:30:07;;;;;;;22.98;13.32;;;6.00;99.90;;;;;;5012262;28;20064;-73
2022/04/18 04:32:33;;;;;;;21.55;12.13;;;5.90;99.90;;;;;;5028607;28;20124;-74
2022/04/18 04:34:59;;;;;;;18.00;13.05;;;5.90;99.90;;;;;;5034199;28;20045;-74
2022/04/18 04:37:25;;;;;;;18.92;12.98;;;5.80;99.90;;;;;;5030173;28;20052;-75
2022/04/18 04:39:51;;;;;;;18.77;13.30;;;6.00;99.90;;;;;;5025713;28;20044;-74
2022/04/18 04:42:18;;;;;;;20.67;12.57;;;5.80;99.90;;;;;;5015992;28;20052;-75
2022/04/18 04:44:44;;;;;;;21.33;12.85;;;6.00;99.90;;;;;;5011789;28;20121;-74
2022/04/18 04:47:11;;;;;;;19.10;12.52;;;5.90;99.90;;;;;;5029374;28;20037;-74
2022/04/18 04:49:37;;;;;;;17.83;12.98;;;6.00;99.90;;;;;;5009625;28;20096;-74
2022/04/18 04:52:04;;;;;;;18.30;12.18;;;6.00;99.90;;;;;;5032176;28;20040;-74
2022/04/18 04:54:30;;;;;;;18.75;12.88;;;6.20;99.90;;;;;;5025974;28;20483;-74
2022/04/18 04:56:55;;;;;;;19.50;12.65;;;6.80;99.90;;;;;;5025273;28;20048;-75
2022/04/18 04:59:21;;;;;;;18.95;12.98;;;7.10;99.90;;;;;;5029690;28;20036;-75
2022/04/18 05:01:47;;;;;;;19.92;12.25;;;7.60;99.90;;;;;;5027190;28;20045;-74
2022/04/18 05:04:13;;;;;;;18.13;12.55;;;7.90;99.90;;;;;;5030840;28;20586;-75
2022/04/18 05:06:39;;;;;;;19.05;12.43;;;8.20;99.90;;;;;;5025570;28;20048;-75
2022/04/18 05:09:06;;;;;;;16.88;12.65;;;8.90;99.90;;;;;;5027751;28;20083;-75
2022/04/18 05:11:33;;;;;;;17.67;12.80;;;8.70;94.30;;;;;;5025820;28;20033;-75
2022/04/18 05:13:59;;;;;;;19.80;13.25;;;9.40;92.00;;;;;;5030246;28;20059;-75
2022/04/18 05:16:25;;;;;;;21.73;13.15;;;10.00;85.20;;;;;;5031549;28;20059;-75
2022/04/18 05:18:51;;;;;;;16.42;12.73;;;10.10;85.10;;;;;;5029308;28;20049;-75
2022/04/18 05:21:17;;;;;;;17.63;12.18;;;10.00;80.50;;;;;;5028604;28;20075;-75
2022/04/18 05:23:42;;;;;;;15.55;12.50;;;10.40;76.80;;;;;;5024418;28;20051;-75
2022/04/18 05:26:09;;;;;;;20.27;12.88;;;10.40;76.40;;;;;;5018344;28;20484;-75
2022/04/18 05:28:35;;;;;;;20.50;13.05;;;11.30;74.50;;;;;;5015527;28;20049;-75
2022/04/18 05:31:01;;;;;;;19.45;12.77;;;11.10;76.70;;;;;;5029564;28;20048;-75
2022/04/18 05:33:27;;;;;;;19.13;13.27;;;11.50;71.90;;;;;;5017444;28;20468;-75
2022/04/18 05:35:53;;;;;;;19.27;12.70;;;11.50;71.00;;;;;;5028148;28;20399;-75
2022/04/18 05:38:19;;;;;;;16.73;12.70;;;11.90;71.70;;;;;;5030024;28;20088;-75
2022/04/18 05:40:45;;;;;;;21.10;13.45;;;11.40;70.20;;;;;;5025485;28;20053;-75
2022/04/18 05:43:11;;;;;;;17.08;12.73;;;12.00;68.80;;;;;;5027801;28;20041;-75
2022/04/18 05:45:38;;;;;;;18.45;12.93;;;12.00;71.20;;;;;;5026861;28;20070;-75
2022/04/18 05:48:04;;;;;;;17.73;12.93;;;12.00;70.60;;;;;;5025423;28;20044;-75
2022/04/18 05:50:30;;;;;;;19.17;12.88;;;11.20;69.50;;;;;;5025766;28;20049;-75
2022/04/18 05:52:56;;;;;;;19.70;12.48;;;10.30;77.60;;;;;;5025473;28;20059;-75
2022/04/18 05:55:23;;;;;;;20.63;12.93;;;10.10;83.70;;;;;;5028532;28;20033;-75
2022/04/18 05:57:50;;;;;;;18.33;13.00;;;10.00;91.40;;;;;;5023186;28;20693;-75
2022/04/18 06:00:16;;;;;;;18.13;12.40;;;10.10;91.90;;;;;;5004990;28;20056;-75
2022/04/18 06:02:42;;;;;;;20.35;12.63;;;10.20;92.60;;;;;;5008656;28;20051;-75
2022/04/18 06:05:08;;;;;;;19.45;12.23;;;10.50;93.00;;;;;;5024110;28;20059;-75
2022/04/18 06:07:34;;;;;;;16.33;12.43;;;10.20;90.70;;;;;;5024706;28;20130;-75
2022/04/18 06:10:04;;;;;;;22.55;12.20;;;10.20;82.20;;;;;;5028343;28;20102;-75
2022/04/18 06:12:30;;;;;;;17.52;12.02;;;10.20;90.70;;;;;;5029295;28;20084;-75
2022/04/18 06:14:56;;;;;;;18.15;12.38;;;10.20;90.20;;;;;;5029287;28;20495;-75
2022/04/18 06:17:21;;;;;;;18.02;12.20;;;10.00;84.50;;;;;;5027295;28;20724;-75
2022/04/18 06:19:49;;;;;;;26.73;12.70;;;9.80;90.90;;;;;;5008227;28;20052;-75
2022/04/18 06:22:16;;;;;;;21.77;12.13;;;10.40;95.40;;;;;;5027109;28;20048;-75
2022/04/18 06:24:42;;;;;;;17.38;12.30;;;10.50;99.90;;;;;;5011651;28;20063;-75
2022/04/18 06:27:08;;;;;;;31.30;13.27;;;10.90;94.60;;;;;;5020040;28;20045;-76
2022/04/18 06:29:35;;;;;;;28.70;12.30;;;10.80;99.90;;;;;;5039882;28;20086;-75
2022/04/18 06:32:01;;;;;;;23.33;12.40;;;11.20;97.40;;;;;;5038484;28;20060;-75
2022/04/18 06:34:27;;;;;;;23.38;11.52;;;11.70;92.00;;;;;;5034322;28;20429;-76
2022/04/18 06:36:53;;;;;;;22.30;11.80;;;11.30;84.90;;;;;;5003486;28;20048;-76
2022/04/18 06:39:19;;;;;;;19.05;11.45;;;11.90;93.70;;;;;;5009891;28;20102;-75
2022/04/18 06:41:45;;;;;;;25.88;12.32;;;12.10;88.70;;;;;;5003348;28;20055;-76
2022/04/18 06:44:11;;;;;;;19.55;11.45;;;12.20;88.20;;;;;;5016778;28;20045;-75
2022/04/18 06:46:37;;;;;;;19.33;11.63;;;11.90;80.60;;;;;;5015373;28;20521;-75
2022/04/18 06:49:03;;;;;;;22.20;11.55;;;11.40;79.90;;;;;;5016288;28;20131;-76
2022/04/18 06:51:29;;;;;;;17.15;10.38;;;11.60;91.40;;;;;;5037146;28;20510;-76
2022/04/18 06:53:54;;;;;;;16.52;10.68;;;11.70;81.80;;;;;;5035978;28;20060;-76
2022/04/18 06:59:05;;;;;;;17.42;9.70;;;12.20;72.90;;;;;;5032741;28;20083;-76
2022/04/18 07:01:30;;;;;;;20.27;9.80;;;12.30;74.00;;;;;;5037111;28;20463;-76
2022/04/18 07:03:56;;;;;;;33.85;10.65;;;12.70;77.50;;;;;;5026200;28;20064;-76
2022/04/18 07:06:23;;;;;;;15.98;9.43;;;13.00;79.30;;;;;;5012675;28;20520;-76
2022/04/18 07:08:50;;;;;;;15.77;9.38;;;12.90;77.10;;;;;;5019087;28;20394;-75
2022/04/18 07:11:16;;;;;;;17.50;9.68;;;12.90;76.30;;;;;;5036116;28;20559;-76
2022/04/18 07:13:42;;;;;;;19.35;9.30;;;12.80;76.40;;;;;;5031911;28;20049;-75
2022/04/18 07:16:07;;;;;;;13.35;8.90;;;12.90;80.40;;;;;;5014408;28;20040;-75
2022/04/18 07:18:34;;;;;;;13.13;8.93;;;12.70;81.10;;;;;;5000016;28;20186;-75
2022/04/18 07:21:00;;;;;;;14.07;9.25;;;13.10;78.40;;;;;;5006160;28;20055;-76
2022/04/18 07:23:25;;;;;;;15.27;8.77;;;13.30;75.40;;;;;;5017614;28;20049;-76
2022/04/18 07:25:53;;;;;;;17.20;9.32;;;13.30;77.50;;;;;;5027373;28;20099;-75
2022/04/18 07:28:19;;;;;;;12.55;8.80;;;13.90;75.40;;;;;;5006780;28;20471;-76
2022/04/18 07:30:45;;;;;;;15.52;8.98;;;13.70;70.10;;;;;;5029248;28;20051;-76
2022/04/18 07:33:14;;;;;;;13.38;8.77;;;12.80;74.40;;;;;;5030237;28;20435;-76
2022/04/18 07:35:40;;;;;;;14.82;9.27;;;12.60;73.20;;;;;;5009955;28;20053;-75
2022/04/18 07:40:50;;;;;;;;;;;13.30;78.30;;;;;;5034715;28;20056;-76
2022/04/18 07:43:16;;;;;;;13.63;8.45;;;14.00;74.50;;;;;;5013232;28;20939;-76
2022/04/18 07:45:42;;;;;;;12.65;8.20;;;14.30;72.20;;;;;;5014176;28;20102;-75
2022/04/18 07:48:08;;;;;;;13.27;8.65;;;14.20;69.40;;;;;;5023601;28;20223;-75
2022/04/18 07:53:19;;;;;;;13.48;8.63;;;14.50;74.50;;;;;;5032402;28;20448;-77
2022/04/18 07:55:45;;;;;;;13.25;8.50;;;14.20;73.90;;;;;;5025469;28;20040;-76
2022/04/18 07:58:11;;;;;;;12.60;8.18;;;13.70;72.40;;;;;;5032294;28;20044;-76
2022/04/18 08:00:36;;;;;;;12.68;8.07;;;14.40;73.80;;;;;;5034172;28;20170;-76
2022/04/18 08:03:03;;;;;;;11.50;8.20;;;14.60;73.70;;;;;;5001091;28;20052;-76
2022/04/18 08:05:28;;;;;;;13.15;8.48;;;15.10;73.50;;;;;;5024494;28;20140;-77
2022/04/18 08:07:54;;;;;;;11.48;8.18;;;15.40;73.90;;;;;;5024950;28;20666;-76
2022/04/18 08:10:20;;;;;;;11.35;7.18;;;15.70;71.20;;;;;;5021326;28;21350;-76
2022/04/18 08:12:46;;;;;;;10.70;7.90;;;16.20;69.30;;;;;;5028970;28;20543;-76
2022/04/18 08:15:12;;;;;;;14.52;7.97;;;15.90;66.60;;;;;;5011301;28;20048;-76
2022/04/18 08:17:38;;;;;;;11.30;7.50;;;16.30;67.90;;;;;;5028617;28;20037;-76
2022/04/18 08:20:04;;;;;;;15.00;8.13;;;16.40;65.60;;;;;;5035184;28;20545;-77
2022/04/18 08:22:30;;;;;;;11.23;7.53;;;16.40;67.50;;;;;;5030855;28;20068;-77
2022/04/18 08:24:56;;;;;;;11.88;7.40;;;17.00;66.80;;;;;;5030084;28;20491;-77
2022/04/18 08:27:22;;;;;;;10.65;6.53;;;17.30;66.10;;;;;;5027808;28;20094;-77
2022/04/18 08:29:48;;;;;;;12.27;6.68;;;17.30;64.20;;;;;;5026688;28;20468;-76
2022/04/18 08:32:14;;;;;;;13.88;6.72;;;17.30;64.20;;;;;;5012126;28;20044;-76
2022/04/18 08:34:40;;;;;;;10.30;6.35;;;17.40;63.00;;;;;;5012533;28;21259;-77
2022/04/18 08:37:07;;;;;;;11.25;6.75;;;17.60;61.70;;;;;;5029075;28;20052;-77
2022/04/18 08:39:33;;;;;;;10.45;6.60;;;17.70;61.30;;;;;;5007689;28;20096;-77
2022/04/18 08:42:00;;;;;;;13.65;7.00;;;18.20;61.70;;;;;;5032818;28;20052;-77
2022/04/18 08:44:26;;;;;;;11.30;6.63;;;17.70;61.80;;;;;;5028402;28;20047;-77
2022/04/18 08:46:55;;;;;;;10.07;6.38;;;18.20;61.50;;;;;;5026675;28;20511;-77
2022/04/18 08:54:52;;;;;;;11.45;6.85;;;18.40;60.70;;;;;;5024080;28;20044;-76
2022/04/18 08:57:18;;;;;;;10.57;6.05;;;18.50;61.60;;;;;;5030003;28;20426;-77
2022/04/18 08:59:44;;;;;;;10.50;6.18;;;18.10;62.00;;;;;;5029108;28;20040;-77
2022/04/18 09:02:10;;;;;;;11.00;6.35;;;18.80;61.20;;;;;;5013325;28;20048;-77
2022/04/18 09:04:36;;;;;;;8.90;6.30;;;18.90;59.90;;;;;;5027050;28;20061;-77
2022/04/18 09:07:13;;;;;;;11.52;6.53;;;19.20;58.90;;;;;;5027268;28;20083;-77
2022/04/18 09:09:39;;;;;;;9.68;6.35;;;19.00;59.20;;;;;;5029025;28;20537;-78
2022/04/18 09:12:22;;;;;;;11.05;5.85;;;18.50;55.50;;;;;;5030611;28;20041;-78
2022/04/18 09:14:48;;;;;;;10.23;6.00;;;19.00;55.80;;;;;;5031606;28;20052;-77
2022/04/18 09:17:34;;;;;;;8.80;5.85;;;18.20;58.10;;;;;;5028668;28;20164;-79
2022/04/18 09:20:04;;;;;;;8.57;5.68;;;19.40;58.80;;;;;;5027713;28;20056;-77
2022/04/18 09:22:30;;;;;;;9.23;5.72;;;19.60;58.60;;;;;;5029089;28;20057;-77
2022/04/18 09:24:56;;;;;;;12.27;6.05;;;19.60;57.30;;;;;;5009099;28;20056;-77
2022/04/18 09:27:27;;;;;;;11.23;5.90;;;19.50;58.10;;;;;;4996865;28;20662;-77
2022/04/18 09:30:22;;;;;;;8.98;5.47;;;19.70;57.60;;;;;;5003961;28;20055;-77
2022/04/18 09:33:03;;;;;;;9.02;5.70;;;19.30;54.30;;;;;;4988107;28;20479;-77
2022/04/18 09:35:30;;;;;;;10.70;5.97;;;19.40;57.40;;;;;;4988649;28;20044;-76
2022/04/18 09:38:06;;;;;;;10.02;5.70;;;20.00;53.10;;;;;;5012972;28;20061;-76
2022/04/18 09:40:33;;;;;;;8.52;5.50;;;19.70;51.60;;;;;;5011271;28;20049;-76
2022/04/18 09:42:59;;;;;;;9.40;5.70;;;19.90;54.50;;;;;;5002903;28;20816;-76
2022/04/18 09:45:25;;;;;;;10.35;6.25;;;20.10;57.40;;;;;;5014874;28;20040;-75
2022/04/18 09:47:56;;;;;;;11.30;5.93;;;19.90;56.30;;;;;;4996151;28;20553;-76
2022/04/18 09:53:23;;;;;;;10.85;5.78;;;20.40;56.50;;;;;;5015703;28;20520;-75
2022/04/18 09:55:56;;;;;;;10.40;5.82;;;21.00;53.00;;;;;;4998164;28;20123;-75
2022/04/18 09:58:23;;;;;;;9.18;5.82;;;20.60;56.00;;;;;;5007925;28;20056;-75
2022/04/18 10:00:49;;;;;;;9.85;5.50;;;20.90;54.40;;;;;;5016117;28;20407;-75
2022/04/18 10:03:17;;;;;;;12.55;5.68;;;20.50;56.50;;;;;;4997672;28;20072;-75
2022/04/18 10:05:43;;;;;;;8.27;5.43;;;20.70;56.60;;;;;;5010880;28;20491;-76
2022/04/18 10:08:08;;;;;;;9.07;5.72;;;21.30;56.10;;;;;;5004503;28;20049;-76
2022/04/18 10:10:36;;;;;;;11.75;6.20;;;21.30;52.20;;;;;;5010000;28;20048;-76
2022/04/18 10:13:03;;;;;;;9.90;6.20;;;19.80;49.80;;;;;;5009366;28;20048;-76
2022/04/18 10:15:30;;;;;;;10.80;6.30;;;19.10;49.00;;;;;;4999249;28;20075;-76
2022/04/18 10:17:56;;;;;;;9.50;5.55;;;19.30;49.80;;;;;;5009121;28;20123;-76
2022/04/18 10:20:46;;;;;;;9.85;5.63;;;20.70;54.70;;;;;;4994110;28;20071;-76
2022/04/18 10:23:40;;;;;;;9.23;5.82;;;20.90;56.50;;;;;;5009714;28;20464;-76
2022/04/18 10:26:22;;;;;;;10.30;6.10;;;20.20;55.00;;;;;;5008733;28;20041;-76
2022/04/18 10:28:51;;;;;;;9.75;6.28;;;20.30;53.60;;;;;;5010061;28;20099;-75
2022/04/18 10:31:37;;;;;;;10.00;6.53;;;20.80;54.10;;;;;;5011576;28;20052;-76
2022/04/18 10:34:03;;;;;;;8.77;5.18;;;20.80;56.20;;;;;;4994743;28;20040;-76
2022/04/18 10:36:34;;;;;;;7.50;4.95;;;20.30;45.80;;;;;;5010398;28;20037;-76
2022/04/18 10:39:05;;;;;;;8.88;5.68;;;19.90;47.30;;;;;;4971629;28;20058;-76
2022/04/18 10:41:40;;;;;;;8.95;5.63;;;20.60;54.00;;;;;;4990488;28;20558;-76
2022/04/18 10:44:08;;;;;;;9.90;6.10;;;20.70;50.00;;;;;;4988938;28;20037;-77
2022/04/18 10:46:38;;;;;;;32.45;5.57;;;21.30;53.10;;;;;;4988223;28;20153;-77
2022/04/18 10:49:15;;;;;;;23.92;5.03;;;20.40;52.30;;;;;;4991295;28;20110;-77
2022/04/18 10:51:43;;;;;;;23.90;4.55;;;20.70;45.40;;;;;;4990515;28;20045;-77
2022/04/18 10:54:23;;;;;;;15.85;4.30;;;21.00;46.90;;;;;;4996235;28;20076;-77
2022/04/18 10:57:01;;;;;;;8.52;4.25;;;21.50;50.40;;;;;;5005247;28;20053;-78
2022/04/18 10:59:35;;;;;;;6.72;4.22;;;22.10;49.40;;;;;;4990537;28;20208;-77
2022/04/18 11:02:02;;;;;;;;;;;21.80;48.50;;;;;;4992474;28;20041;-77
2022/04/18 11:04:35;;;;;;;6.28;3.72;;;21.60;50.10;;;;;;4991888;28;19924;-78
2022/04/18 11:07:07;;;;;;;8.38;4.15;;;21.80;49.70;;;;;;4983810;28;20258;-77
2022/04/18 11:09:38;;;;;;;19.73;5.40;;;21.80;47.70;;;;;;4991935;28;20591;-78
2022/04/18 11:12:17;;;;;;;7.50;4.32;;;22.20;48.60;;;;;;4995466;28;20056;-77
2022/04/18 11:14:54;;;;;;;10.45;4.60;;;21.40;52.50;;;;;;4991759;28;20519;-77
2022/04/18 11:17:37;;;;;;;7.88;4.30;;;21.80;52.30;;;;;;5001970;28;20143;-77
2022/04/18 11:20:35;;;;;;;7.75;4.75;;;21.80;51.30;;;;;;5002874;28;20064;-76
2022/04/18 11:23:27;;;;;;;8.63;4.70;;;21.80;46.90;;;;;;5012174;28;20048;-77
2022/04/18 11:25:57;;;;;;;7.95;4.55;;;21.20;49.60;;;;;;5019755;28;20056;-77
2022/04/18 11:28:30;;;;;;;7.22;4.15;;;21.60;46.00;;;;;;5007684;28;20037;-77
2022/04/18 11:30:56;;;;;;;7.25;3.88;;;21.30;46.20;;;;;;5010499;28;20156;-78
2022/04/18 11:33:22;;;;;;;14.38;4.60;;;21.40;49.30;;;;;;5009272;28;20057;-78
2022/04/18 11:35:48;;;;;;;9.45;4.00;;;22.40;49.90;;;;;;4998889;28;20046;-77
2022/04/18 11:38:14;;;;;;;9.02;3.97;;;22.50;47.90;;;;;;4996060;28;20599;-77
2022/04/18 11:40:41;;;;;;;9.95;4.60;;;21.30;45.00;;;;;;5003742;28;20045;-77
2022/04/18 11:43:14;;;;;;;13.13;5.32;;;21.50;49.90;;;;;;5006549;28;20048;-78
2022/04/18 11:45:39;;;;;;;7.05;4.38;;;21.70;44.10;;;;;;5005030;28;20048;-77
2022/04/18 11:48:06;;;;;;;7.40;4.38;;;20.60;46.80;;;;;;5004322;28;20057;-78
2022/04/18 11:50:36;;;;;;;6.68;4.43;;;20.50;46.10;;;;;;5005046;28;20768;-77
2022/04/18 11:53:07;;;;;;;8.05;4.60;;;21.30;46.10;;;;;;5006358;28;20044;-77
2022/04/18 11:55:48;;;;;;;7.00;4.28;;;21.10;41.90;;;;;;5000384;28;20455;-76
2022/04/18 11:58:20;;;;;;;10.95;4.63;;;20.10;42.80;;;;;;5001518;28;20049;-77
2022/04/18 12:09:08;;;;;;;8.55;4.75;;;21.30;49.20;;;;;;5003874;28;20143;-76
2022/04/18 12:11:35;;;;;;;7.25;4.78;;;22.00;49.00;;;;;;5002678;28;20548;-76
2022/04/18 12:14:01;;;;;;;6.80;4.30;;;21.90;49.20;;;;;;5003159;28;22285;-76
2022/04/18 12:16:27;;;;;;;7.47;4.32;;;22.20;47.00;;;;;;5005121;28;20343;-75
2022/04/18 12:18:54;;;;;;;7.88;4.40;;;21.10;45.60;;;;;;5002755;28;20491;-76
2022/04/18 12:21:20;;;;;;;7.78;4.72;;;19.80;42.50;;;;;;5006149;28;20042;-75
2022/04/18 12:23:55;;;;;;;7.75;4.57;;;19.70;40.00;;;;;;5005895;28;20053;-75
2022/04/18 12:26:28;;;;;;;11.18;4.88;;;20.80;51.60;;;;;;5007724;28;21996;-75
2022/04/18 12:29:03;;;;;;;7.63;4.37;;;21.30;46.60;;;;;;5007699;28;20056;-76
2022/04/18 12:31:29;;;;;;;8.20;4.30;;;21.60;51.80;;;;;;5005180;28;20563;-76
2022/04/18 12:33:56;;;;;;;7.68;4.47;;;21.80;49.10;;;;;;5000898;28;20056;-76
2022/04/18 12:36:35;;;;;;;7.18;4.50;;;21.80;49.10;;;;;;5007142;28;20056;-76
2022/04/18 12:39:03;;;;;;;6.63;4.07;;;21.00;43.10;;;;;;5013988;28;20061;-76
2022/04/18 12:41:34;;;;;;;13.68;4.80;;;19.80;42.90;;;;;;5007795;28;20107;-76
2022/04/18 12:44:01;;;;;;;6.43;4.20;;;20.80;45.60;;;;;;5003925;28;20134;-76
2022/04/18 12:46:32;;;;;;;9.65;4.68;;;19.50;42.10;;;;;;5023341;28;20048;-75
2022/04/18 12:49:08;;;;;;;7.95;4.63;;;21.00;46.80;;;;;;5022731;28;20083;-76
2022/04/18 12:51:39;;;;;;;8.00;4.80;;;20.10;40.20;;;;;;5023182;28;20057;-76
2022/04/18 12:54:19;;;;;;;7.45;4.70;;;20.60;49.50;;;;;;5023042;28;20120;-76
2022/04/18 12:56:46;;;;;;;7.72;4.85;;;21.20;43.70;;;;;;5002232;28;20440;-76
2022/04/18 12:59:14;;;;;;;8.68;4.75;;;20.80;49.10;;;;;;5021800;28;20040;-76
2022/04/18 13:01:40;;;;;;;8.25;4.60;;;21.00;46.70;;;;;;5017809;28;20055;-77
2022/04/18 13:04:27;;;;;;;11.18;4.38;;;21.90;49.20;;;;;;5020429;28;20051;-77
2022/04/18 13:07:04;;;;;;;6.97;4.10;;;22.10;42.10;;;;;;5021267;28;20574;-77
2022/04/18 13:09:30;;;;;;;6.50;4.22;;;21.90;41.80;;;;;;5003832;28;20337;-77
2022/04/18 13:12:09;;;;;;;14.93;4.68;;;20.80;40.50;;;;;;5007096;28;20472;-77
2022/04/18 13:15:02;;;;;;;7.85;4.47;;;21.60;44.80;;;;;;5003652;28;20044;-76
2022/04/18 13:17:29;;;;;;;7.40;4.43;;;22.00;44.10;;;;;;5023230;28;20123;-76
2022/04/18 13:19:55;;;;;;;6.93;4.35;;;21.90;45.40;;;;;;5021255;28;20055;-76